createdAt,value
2023-03-02T00:06:45.303Z,17.267558528428093
2023-03-02T00:13:08.280Z,19.47826086956522
2023-03-02T00:19:33.095Z,16.712374581939798
2023-03-02T00:28:13.569Z,22.361204013377925
2023-03-02T00:34:36.973Z,20.645484949832777
2023-03-02T00:41:00.010Z,20.17391304347826
2023-03-02T00:48:07.037Z,24.0
2023-03-02T00:54:30.205Z,25.652173913043477
2023-03-02T01:00:53.499Z,22.809364548494983
2023-03-02T01:07:18.018Z,25.692307692307693
2023-03-02T01:13:41.835Z,23.37458193979933
2023-03-02T01:20:59.765Z,24.040133779264213
2023-03-02T01:32:24.849Z,22.043478260869566
2023-03-02T01:46:04.761Z,23.19732441471572
2023-03-02T01:54:13.347Z,22.237458193979933
2023-03-02T02:05:31.112Z,19.501672240802677
2023-03-02T02:11:56.243Z,17.909698996655518
2023-03-02T02:18:20.940Z,16.51505016722408
2023-03-02T02:26:10.569Z,19.451505016722408
2023-03-02T02:32:32.747Z,21.561872909698998
2023-03-02T02:38:56.727Z,21.00334448160535
2023-03-02T02:47:46.263Z,18.297658862876254
2023-03-02T02:54:10.838Z,17.91638795986622
2023-03-02T03:04:57.159Z,15.882943143812708
2023-03-02T03:12:34.295Z,19.53846153846154
2023-03-02T03:28:47.812Z,19.03010033444816
2023-03-02T03:35:13.284Z,20.99665551839465
2023-03-02T03:41:37.435Z,19.40802675585284
2023-03-02T03:48:01.622Z,17.91973244147157
2023-03-02T04:01:17.263Z,18.74916387959866
2023-03-02T04:11:19.486Z,19.702341137123746
2023-03-02T04:17:59.807Z,17.418060200668897
2023-03-02T04:24:23.612Z,19.347826086956523
2023-03-02T04:36:41.163Z,16.51505016722408
2023-03-02T04:43:04.972Z,19.73913043478261
2023-03-02T04:49:28.534Z,20.65886287625418
2023-03-02T04:55:51.601Z,17.612040133779264
2023-03-02T05:02:16.000Z,17.77257525083612
2023-03-02T05:14:46.316Z,19.722408026755854
2023-03-02T05:21:09.888Z,18.581939799331103
2023-03-02T05:27:34.991Z,20.97324414715719
2023-03-02T05:33:56.758Z,20.869565217391305
2023-03-02T05:40:21.116Z,18.819397993311036
2023-03-02T05:46:45.614Z,20.565217391304348
2023-03-02T05:53:09.505Z,21.40468227424749
2023-03-02T05:59:31.559Z,19.05351170568562
2023-03-02T06:11:43.493Z,19.68561872909699
2023-03-02T06:20:16.615Z,18.876254180602007
2023-03-02T06:29:53.516Z,17.94314381270903
2023-03-02T06:43:29.168Z,15.494983277591974
2023-03-02T06:49:53.138Z,16.74916387959866
2023-03-02T06:56:16.978Z,17.581939799331103
2023-03-02T07:02:47.041Z,17.976588628762542
2023-03-02T07:13:13.864Z,18.528428093645484
2023-03-02T07:21:43.097Z,20.668896321070235
2023-03-02T07:28:06.948Z,20.06354515050167
2023-03-02T07:34:30.166Z,16.31103678929766
2023-03-02T07:40:53.943Z,15.133779264214047
2023-03-02T07:47:17.862Z,20.51505016722408
2023-03-02T07:53:55.130Z,20.88294314381271
2023-03-02T08:09:11.564Z,16.391304347826086
2023-03-02T08:21:24.657Z,17.26086956521739
2023-03-02T08:42:37.515Z,17.02006688963211
2023-03-02T08:49:01.661Z,20.31438127090301
2023-03-02T08:55:26.235Z,15.635451505016722
2023-03-02T09:07:48.914Z,19.013377926421406
2023-03-02T09:14:13.420Z,16.347826086956523
2023-03-02T09:20:38.410Z,16.42809364548495
2023-03-02T09:37:51.558Z,18.1438127090301
2023-03-02T09:44:17.204Z,19.889632107023413
2023-03-02T09:55:57.166Z,15.68561872909699
2023-03-02T10:05:48.826Z,15.080267558528428
2023-03-02T10:12:15.731Z,16.762541806020067
2023-03-02T10:24:10.831Z,20.264214046822744
2023-03-02T10:35:33.291Z,15.779264214046822
2023-03-02T10:43:06.745Z,14.645484949832776
2023-03-02T10:49:31.191Z,18.25752508361204
2023-03-02T10:55:56.272Z,13.73913043478261
2023-03-02T11:02:22.033Z,18.505016722408026
2023-03-02T11:12:41.832Z,14.692307692307692
2023-03-02T11:19:11.127Z,20.585284280936456
2023-03-02T11:25:40.153Z,18.695652173913043
2023-03-02T11:35:08.596Z,18.267558528428093
2023-03-02T11:46:21.680Z,14.050167224080267
2023-03-02T11:52:49.274Z,13.143812709030101
2023-03-02T12:11:59.876Z,14.117056856187292
2023-03-02T12:18:25.222Z,16.795986622073578
2023-03-02T12:24:51.993Z,14.464882943143813
2023-03-02T12:40:54.179Z,12.933110367892976
2023-03-02T12:47:21.193Z,12.896321070234114
2023-03-02T13:00:21.875Z,10.26086956521739
2023-03-02T13:06:47.558Z,8.939799331103679
2023-03-02T13:13:14.618Z,13.22742474916388
2023-03-02T13:19:41.177Z,14.364548494983278
2023-03-02T13:26:06.784Z,11.595317725752508
2023-03-02T13:32:32.189Z,11.040133779264215
2023-03-02T13:38:57.449Z,11.494983277591974
2023-03-02T13:45:22.636Z,10.538461538461538
2023-03-02T13:55:45.422Z,11.354515050167224
2023-03-02T14:06:23.195Z,11.461538461538462
2023-03-02T14:12:48.766Z,9.076923076923077
2023-03-02T14:24:02.507Z,10.02675585284281
2023-03-02T14:30:26.436Z,11.508361204013378
2023-03-02T14:36:51.028Z,11.043478260869565
2023-03-02T14:45:34.555Z,8.799331103678929
2023-03-02T14:59:28.462Z,14.361204013377927
2023-03-02T15:09:51.970Z,12.929765886287626
2023-03-02T15:21:39.116Z,12.792642140468228
2023-03-02T15:29:08.978Z,13.26086956521739
2023-03-02T15:41:39.349Z,16.471571906354516
2023-03-02T15:48:04.817Z,15.775919732441471
2023-03-02T16:00:29.046Z,18.638795986622075
2023-03-02T16:06:52.678Z,18.204013377926422
2023-03-02T16:13:17.840Z,15.605351170568563
2023-03-02T16:19:42.637Z,18.244147157190636
2023-03-02T16:28:13.416Z,18.137123745819398
2023-03-02T16:48:08.161Z,19.91638795986622
2023-03-02T17:00:08.390Z,18.501672240802677
2023-03-02T17:06:30.616Z,23.494983277591974
2023-03-02T17:12:53.299Z,27.678929765886288
2023-03-02T17:31:17.491Z,24.48160535117057
2023-03-02T17:37:38.823Z,27.17056856187291
2023-03-02T17:44:03.065Z,27.187290969899667
2023-03-02T17:50:25.414Z,26.74247491638796
2023-03-02T18:00:59.648Z,22.923076923076923
2023-03-02T18:07:22.732Z,20.682274247491637
2023-03-02T18:16:44.688Z,22.434782608695652
2023-03-02T18:25:38.164Z,30.05351170568562
2023-03-02T18:40:16.282Z,24.08361204013378
2023-03-02T18:46:39.035Z,20.615384615384617
2023-03-02T18:53:03.251Z,19.19732441471572
2023-03-02T19:03:56.254Z,21.555183946488295
2023-03-02T19:10:21.533Z,20.234113712374583
2023-03-02T19:20:59.150Z,18.49163879598662
2023-03-02T19:27:21.334Z,17.806020066889634
2023-03-02T19:35:54.465Z,16.224080267558527
2023-03-02T19:42:38.196Z,15.575250836120402
2023-03-02T19:49:00.446Z,16.88628762541806
2023-03-02T19:58:47.496Z,15.20401337792642
2023-03-02T20:05:09.644Z,16.39799331103679
2023-03-02T20:11:31.055Z,14.334448160535118
2023-03-02T20:17:52.858Z,16.782608695652176
2023-03-02T20:24:16.015Z,12.665551839464882
2023-03-02T20:30:37.192Z,13.876254180602007
2023-03-02T20:36:59.558Z,13.906354515050166
2023-03-02T20:50:47.809Z,14.54180602006689
2023-03-02T20:57:41.946Z,15.45819397993311
2023-03-02T21:14:39.332Z,13.615384615384615
2023-03-02T21:21:42.939Z,14.207357859531772
2023-03-02T21:28:07.069Z,13.147157190635452
2023-03-02T21:34:30.735Z,15.74247491638796
2023-03-02T21:44:03.935Z,16.531772575250837
2023-03-02T21:50:26.249Z,14.454849498327759
2023-03-02T21:56:48.309Z,13.929765886287626
2023-03-02T22:18:37.991Z,12.451505016722408
2023-03-02T22:24:59.919Z,13.996655518394649
2023-03-02T22:31:20.891Z,12.719063545150501
2023-03-02T22:37:43.541Z,15.193979933110368
2023-03-02T22:44:05.130Z,13.381270903010034
2023-03-02T22:50:25.877Z,11.481605351170568
2023-03-02T22:56:46.927Z,14.414715719063546
2023-03-02T23:03:08.287Z,14.31438127090301
2023-03-02T23:16:49.546Z,15.903010033444817
2023-03-02T23:36:16.528Z,19.03344481605351
2023-03-02T23:48:02.953Z,15.88628762541806
2023-03-02T23:54:24.294Z,17.755852842809364
